Terminal Aerodrome Forecast
Issued by NWS

Home | Current Version | Previous Version | Text Only | Print | Product List | Glossary On
Versions: 1 2 3 4 5 6 7 8 9 10 11 12 13 14 15 16 17 18
000
FTAK31 PAJN 300500
TAFASI
TAF
PASI 300526Z 3006/3106 29009KT P6SM FEW008
     FM300900 31007KT P6SM OVC006
     FM301200 32005KT 2SM BR OVC003
     FM301700 28006KT P6SM OVC008
     FM302100 25009KT P6SM SCT010=

USA.gov is the U.S. government's official web portal to all federal, state and local government web resources and services.